sensor_id;sensor_type;location;lat;lon;timestamp;pressure;altitude;pressure_sealevel;temperature;humidity
40574;BME280;26283;49.020;8.644;2023-08-30T00:13:47;98635.22;;;20.58;59.38
40574;BME280;26283;49.020;8.644;2023-08-30T00:16:13;98627.00;;;20.58;59.18
40574;BME280;26283;49.020;8.644;2023-08-30T00:18:39;98629.25;;;20.56;59.25
40574;BME280;26283;49.020;8.644;2023-08-30T00:21:05;98622.97;;;20.55;59.25
40574;BME280;26283;49.020;8.644;2023-08-30T00:23:32;98626.50;;;20.56;59.24
40574;BME280;26283;49.020;8.644;2023-08-30T00:25:57;98628.44;;;20.55;59.24
40574;BME280;26283;49.020;8.644;2023-08-30T00:28:22;98626.00;;;20.53;59.16
40574;BME280;26283;49.020;8.644;2023-08-30T00:30:53;98625.69;;;20.55;59.17
40574;BME280;26283;49.020;8.644;2023-08-30T00:33:18;98627.63;;;20.55;59.24
40574;BME280;26283;49.020;8.644;2023-08-30T00:35:44;98624.06;;;20.54;59.12
40574;BME280;26283;49.020;8.644;2023-08-30T00:38:09;98624.38;;;20.52;59.09
40574;BME280;26283;49.020;8.644;2023-08-30T00:40:39;98630.66;;;20.53;59.05
40574;BME280;26283;49.020;8.644;2023-08-30T00:43:05;98626.28;;;20.52;59.18
40574;BME280;26283;49.020;8.644;2023-08-30T00:45:32;98625.19;;;20.53;59.09
40574;BME280;26283;49.020;8.644;2023-08-30T00:47:57;98623.84;;;20.50;59.11
40574;BME280;26283;49.020;8.644;2023-08-30T00:50:23;98615.63;;;20.50;59.13
40574;BME280;26283;49.020;8.644;2023-08-30T00:52:49;98616.44;;;20.51;59.14
40574;BME280;26283;49.020;8.644;2023-08-30T00:55:14;98614.00;;;20.49;59.17
40574;BME280;26283;49.020;8.644;2023-08-30T00:57:40;98608.53;;;20.49;59.15
40574;BME280;26283;49.020;8.644;2023-08-30T01:00:06;98605.28;;;20.47;59.17
40574;BME280;26283;49.020;8.644;2023-08-30T01:02:32;98606.09;;;20.48;59.10
40574;BME280;26283;49.020;8.644;2023-08-30T01:04:58;98605.28;;;20.47;59.15
40574;BME280;26283;49.020;8.644;2023-08-30T01:07:23;98603.66;;;20.46;59.10
40574;BME280;26283;49.020;8.644;2023-08-30T01:09:49;98602.03;;;20.45;59.15
40574;BME280;26283;49.020;8.644;2023-08-30T01:12:22;98607.50;;;20.45;59.13
40574;BME280;26283;49.020;8.644;2023-08-30T01:14:52;98601.22;;;20.45;59.28
40574;BME280;26283;49.020;8.644;2023-08-30T01:17:22;98606.69;;;20.45;59.19
40574;BME280;26283;49.020;8.644;2023-08-30T01:20:01;98598.78;;;20.43;59.08
40574;BME280;26283;49.020;8.644;2023-08-30T01:23:07;98591.97;;;20.41;59.23
40574;BME280;26283;49.020;8.644;2023-08-30T01:28:19;98594.72;;;20.41;58.84
40574;BME280;26283;49.020;8.644;2023-08-30T01:30:45;98592.28;;;20.39;58.91
40574;BME280;26283;49.020;8.644;2023-08-30T01:33:11;98589.03;;;20.37;58.89
40574;BME280;26283;49.020;8.644;2023-08-30T01:35:38;98587.91;;;20.38;58.92
40574;BME280;26283;49.020;8.644;2023-08-30T01:38:07;98593.69;;;20.37;58.92
40574;BME280;26283;49.020;8.644;2023-08-30T01:40:37;98589.03;;;20.37;58.86
40574;BME280;26283;49.020;8.644;2023-08-30T01:43:05;98599.16;;;20.37;58.87
40574;BME280;26283;49.020;8.644;2023-08-30T01:45:35;98587.34;;;20.36;58.72
40574;BME280;26283;49.020;8.644;2023-08-30T01:48:02;98594.28;;;20.34;58.77
40574;BME280;26283;49.020;8.644;2023-08-30T01:50:28;98595.09;;;20.34;58.66
40574;BME280;26283;49.020;8.644;2023-08-30T01:52:54;98594.28;;;20.34;58.70
40574;BME280;26283;49.020;8.644;2023-08-30T01:55:22;98595.38;;;20.33;58.75
40574;BME280;26283;49.020;8.644;2023-08-30T01:57:48;98586.34;;;20.32;58.78
40574;BME280;26283;49.020;8.644;2023-08-30T02:00:14;98589.09;;;20.32;58.79
40574;BME280;26283;49.020;8.644;2023-08-30T02:02:40;98588.28;;;20.32;58.76
40574;BME280;26283;49.020;8.644;2023-08-30T02:05:06;98590.22;;;20.31;58.70
40574;BME280;26283;49.020;8.644;2023-08-30T02:07:46;98583.09;;;20.30;58.68
40574;BME280;26283;49.020;8.644;2023-08-30T02:10:21;98590.50;;;20.30;58.81
40574;BME280;26283;49.020;8.644;2023-08-30T02:12:49;98584.50;;;20.28;58.57
40574;BME280;26283;49.020;8.644;2023-08-30T02:15:16;98590.28;;;20.26;58.54
40574;BME280;26283;49.020;8.644;2023-08-30T02:17:43;98592.19;;;20.26;58.64
40574;BME280;26283;49.020;8.644;2023-08-30T02:20:09;98584.28;;;20.24;58.59
40574;BME280;26283;49.020;8.644;2023-08-30T02:22:35;98585.91;;;20.25;58.63
40574;BME280;26283;49.020;8.644;2023-08-30T02:25:01;98586.22;;;20.24;58.67
40574;BME280;26283;49.020;8.644;2023-08-30T02:27:33;98593.59;;;20.23;58.67
40574;BME280;26283;49.020;8.644;2023-08-30T02:29:58;98591.97;;;20.22;58.67
40574;BME280;26283;49.020;8.644;2023-08-30T02:32:23;98598.56;;;20.21;58.65
40574;BME280;26283;49.020;8.644;2023-08-30T02:34:50;98595.81;;;20.21;58.62
40574;BME280;26283;49.020;8.644;2023-08-30T02:37:16;98597.75;;;20.20;58.66
40574;BME280;26283;49.020;8.644;2023-08-30T02:39:41;98598.84;;;20.19;58.66
40574;BME280;26283;49.020;8.644;2023-08-30T02:42:07;98584.37;;;20.19;58.67
40574;BME280;26283;49.020;8.644;2023-08-30T02:44:32;98592.56;;;20.19;58.65
40574;BME280;26283;49.020;8.644;2023-08-30T02:46:57;98587.09;;;20.19;58.66
40574;BME280;26283;49.020;8.644;2023-08-30T02:49:23;98594.50;;;20.18;58.65
40574;BME280;26283;49.020;8.644;2023-08-30T02:51:48;98589.31;;;20.17;58.70
40574;BME280;26283;49.020;8.644;2023-08-30T02:54:13;98589.31;;;20.17;58.76
40574;BME280;26283;49.020;8.644;2023-08-30T02:56:40;98589.31;;;20.17;58.72
40574;BME280;26283;49.020;8.644;2023-08-30T02:59:07;98592.34;;;20.15;58.78
40574;BME280;26283;49.020;8.644;2023-08-30T03:01:33;98587.97;;;20.14;58.73
40574;BME280;26283;49.020;8.644;2023-08-30T03:03:58;98594.28;;;20.15;58.74
40574;BME280;26283;49.020;8.644;2023-08-30T03:06:23;98595.91;;;20.16;58.77
40574;BME280;26283;49.020;8.644;2023-08-30T03:08:49;98597.00;;;20.15;58.79
40574;BME280;26283;49.020;8.644;2023-08-30T03:11:14;98595.38;;;20.14;58.82
40574;BME280;26283;49.020;8.644;2023-08-30T03:13:39;98585.56;;;20.13;58.85
40574;BME280;26283;49.020;8.644;2023-08-30T03:16:11;98585.56;;;20.13;58.86
40574;BME280;26283;49.020;8.644;2023-08-30T03:18:37;98586.69;;;20.12;59.03
40574;BME280;26283;49.020;8.644;2023-08-30T03:21:02;98585.06;;;20.11;58.91
40574;BME280;26283;49.020;8.644;2023-08-30T03:23:28;98591.34;;;20.11;58.94
40574;BME280;26283;49.020;8.644;2023-08-30T03:25:55;98592.44;;;20.10;59.00
40574;BME280;26283;49.020;8.644;2023-08-30T03:28:21;98594.38;;;20.10;59.05
40574;BME280;26283;49.020;8.644;2023-08-30T03:30:47;98587.28;;;20.09;59.08
40574;BME280;26283;49.020;8.644;2023-08-30T03:33:12;98586.47;;;20.08;59.12
40574;BME280;26283;49.020;8.644;2023-08-30T03:35:38;98586.47;;;20.08;59.13
40574;BME280;26283;49.020;8.644;2023-08-30T03:38:04;98585.66;;;20.08;59.16
40574;BME280;26283;49.020;8.644;2023-08-30T03:40:30;98574.19;;;20.06;59.20
40574;BME280;26283;49.020;8.644;2023-08-30T03:42:55;98579.66;;;20.06;59.20
40574;BME280;26283;49.020;8.644;2023-08-30T03:45:22;98576.13;;;20.05;59.27
40574;BME280;26283;49.020;8.644;2023-08-30T03:47:47;98563.53;;;20.04;59.30
40574;BME280;26283;49.020;8.644;2023-08-30T03:50:13;98575.28;;;20.05;59.33
40574;BME280;26283;49.020;8.644;2023-08-30T03:52:38;98572.84;;;20.03;59.36
40574;BME280;26283;49.020;8.644;2023-08-30T03:55:04;98568.19;;;20.04;59.36
40574;BME280;26283;49.020;8.644;2023-08-30T03:57:29;98573.66;;;20.04;59.35
40574;BME280;26283;49.020;8.644;2023-08-30T03:59:55;98574.78;;;20.03;59.36
40574;BME280;26283;49.020;8.644;2023-08-30T04:02:20;98571.53;;;20.01;59.41
40574;BME280;26283;49.020;8.644;2023-08-30T04:04:48;98573.16;;;20.02;59.41
40574;BME280;26283;49.020;8.644;2023-08-30T04:07:14;98581.34;;;20.02;59.50
40574;BME280;26283;49.020;8.644;2023-08-30T04:09:40;98578.91;;;20.00;59.43
40574;BME280;26283;49.020;8.644;2023-08-30T04:12:06;98583.56;;;20.00;59.48
40574;BME280;26283;49.020;8.644;2023-08-30T04:14:31;98580.84;;;20.00;59.52
40574;BME280;26283;49.020;8.644;2023-08-30T04:16:56;98580.31;;;19.98;59.56
40574;BME280;26283;49.020;8.644;2023-08-30T04:19:22;98580.31;;;19.98;59.55
40574;BME280;26283;49.020;8.644;2023-08-30T04:21:47;98582.53;;;19.96;59.61
40574;BME280;26283;49.020;8.644;2023-08-30T04:24:14;98580.59;;;19.96;59.59
40574;BME280;26283;49.020;8.644;2023-08-30T04:26:40;98582.53;;;19.96;59.60
40574;BME280;26283;49.020;8.644;2023-08-30T04:29:05;98583.63;;;19.95;59.67
40574;BME280;26283;49.020;8.644;2023-08-30T04:31:31;98582.53;;;19.96;59.68
40574;BME280;26283;49.020;8.644;2023-08-30T04:33:56;98574.63;;;19.94;59.65
40574;BME280;26283;49.020;8.644;2023-08-30T04:36:22;98573.00;;;19.93;59.68
40574;BME280;26283;49.020;8.644;2023-08-30T04:38:48;98572.19;;;19.93;59.68
40574;BME280;26283;49.020;8.644;2023-08-30T04:41:13;98571.38;;;19.92;59.69
40574;BME280;26283;49.020;8.644;2023-08-30T04:43:38;98579.56;;;19.92;59.73
40574;BME280;26283;49.020;8.644;2023-08-30T04:46:04;98573.31;;;19.92;59.73
40574;BME280;26283;49.020;8.644;2023-08-30T04:48:29;98584.25;;;19.92;59.74
40574;BME280;26283;49.020;8.644;2023-08-30T04:51:00;98580.72;;;19.91;59.69
40574;BME280;26283;49.020;8.644;2023-08-30T04:53:25;98575.25;;;19.91;59.77
40574;BME280;26283;49.020;8.644;2023-08-30T04:55:51;98579.09;;;19.90;59.74
40574;BME280;26283;49.020;8.644;2023-08-30T04:58:16;98575.53;;;19.90;59.73
40574;BME280;26283;49.020;8.644;2023-08-30T05:00:41;98579.91;;;19.91;59.75
40574;BME280;26283;49.020;8.644;2023-08-30T05:03:07;98582.13;;;19.89;59.72
40574;BME280;26283;49.020;8.644;2023-08-30T05:05:32;98584.84;;;19.89;59.75
40574;BME280;26283;49.020;8.644;2023-08-30T05:07:57;98577.75;;;19.88;59.76
40574;BME280;26283;49.020;8.644;2023-08-30T05:10:23;98585.94;;;19.88;59.75
40574;BME280;26283;49.020;8.644;2023-08-30T05:12:48;98585.13;;;19.87;59.81
40574;BME280;26283;49.020;8.644;2023-08-30T05:15:17;98587.88;;;19.87;59.84
40574;BME280;26283;49.020;8.644;2023-08-30T05:17:42;98593.63;;;19.85;59.83
40574;BME280;26283;49.020;8.644;2023-08-30T05:20:08;98591.72;;;19.86;59.87
40574;BME280;26283;49.020;8.644;2023-08-30T05:22:34;98595.56;;;19.85;59.85
40574;BME280;26283;49.020;8.644;2023-08-30T05:24:59;98590.09;;;19.85;59.83
40574;BME280;26283;49.020;8.644;2023-08-30T05:27:24;98583.81;;;19.84;59.81
40574;BME280;26283;49.020;8.644;2023-08-30T05:29:50;98586.53;;;19.84;59.82
40574;BME280;26283;49.020;8.644;2023-08-30T05:32:15;98579.44;;;19.83;59.87
40574;BME280;26283;49.020;8.644;2023-08-30T05:34:40;98583.00;;;19.84;59.90
40574;BME280;26283;49.020;8.644;2023-08-30T05:37:06;98579.44;;;19.83;59.84
40574;BME280;26283;49.020;8.644;2023-08-30T05:39:31;98587.66;;;19.83;59.87
40574;BME280;26283;49.020;8.644;2023-08-30T05:41:57;98580.56;;;19.82;59.85
40574;BME280;26283;49.020;8.644;2023-08-30T05:44:22;98578.94;;;19.81;59.87
40574;BME280;26283;49.020;8.644;2023-08-30T05:46:47;98583.56;;;19.81;59.88
40574;BME280;26283;49.020;8.644;2023-08-30T05:49:13;98590.97;;;19.80;59.89
40574;BME280;26283;49.020;8.644;2023-08-30T05:51:38;98590.16;;;19.80;59.83
40574;BME280;26283;49.020;8.644;2023-08-30T05:54:04;98589.34;;;19.79;59.85
40574;BME280;26283;49.020;8.644;2023-08-30T05:56:29;98581.94;;;19.80;59.91
40574;BME280;26283;49.020;8.644;2023-08-30T05:58:54;98582.75;;;19.80;59.94
40574;BME280;26283;49.020;8.644;2023-08-30T06:01:20;98581.44;;;19.78;59.94
40574;BME280;26283;49.020;8.644;2023-08-30T06:03:45;98585.50;;;19.80;59.94
40574;BME280;26283;49.020;8.644;2023-08-30T06:06:12;98582.25;;;19.78;60.01
40574;BME280;26283;49.020;8.644;2023-08-30T06:08:37;98588.81;;;19.77;60.05
40574;BME280;26283;49.020;8.644;2023-08-30T06:11:03;98582.25;;;19.78;60.08
40574;BME280;26283;49.020;8.644;2023-08-30T06:13:28;98580.63;;;19.77;60.09
40574;BME280;26283;49.020;8.644;2023-08-30T06:15:53;98587.19;;;19.76;60.12
40574;BME280;26283;49.020;8.644;2023-08-30T06:18:19;98583.63;;;19.76;60.20
40574;BME280;26283;49.020;8.644;2023-08-30T06:20:45;98585.28;;;19.77;60.25
40574;BME280;26283;49.020;8.644;2023-08-30T06:23:11;98580.69;;;19.72;60.24
40574;BME280;26283;49.020;8.644;2023-08-30T06:25:36;98594.56;;;19.76;60.29
40574;BME280;26283;49.020;8.644;2023-08-30T06:28:05;98592.13;;;19.74;60.29
40574;BME280;26283;49.020;8.644;2023-08-30T06:30:30;98581.19;;;19.74;60.35
40574;BME280;26283;49.020;8.644;2023-08-30T06:32:56;98582.59;;;19.72;60.29
40574;BME280;26283;49.020;8.644;2023-08-30T06:35:22;98585.03;;;19.73;60.36
40574;BME280;26283;49.020;8.644;2023-08-30T06:37:48;98582.31;;;19.73;60.46
40574;BME280;26283;49.020;8.644;2023-08-30T06:40:13;98585.03;;;19.73;60.47
40574;BME280;26283;49.020;8.644;2023-08-30T06:42:39;98589.41;;;19.74;60.52
40574;BME280;26283;49.020;8.644;2023-08-30T06:45:05;98590.50;;;19.73;60.54
40574;BME280;26283;49.020;8.644;2023-08-30T06:47:30;98609.66;;;19.73;60.57
40574;BME280;26283;49.020;8.644;2023-08-30T06:49:56;98600.63;;;19.73;61.11
40574;BME280;26283;49.020;8.644;2023-08-30T06:52:24;98604.19;;;19.73;61.30
40574;BME280;26283;49.020;8.644;2023-08-30T06:54:49;98597.59;;;19.74;61.40
40574;BME280;26283;49.020;8.644;2023-08-30T06:57:15;98603.06;;;19.74;61.45
40574;BME280;26283;49.020;8.644;2023-08-30T06:59:40;98600.34;;;19.74;61.48
40574;BME280;26283;49.020;8.644;2023-08-30T07:02:09;98598.41;;;19.75;61.50
40574;BME280;26283;49.020;8.644;2023-08-30T07:04:34;98598.13;;;19.76;61.52
40574;BME280;26283;49.020;8.644;2023-08-30T07:06:59;98600.84;;;19.76;61.43
40574;BME280;26283;49.020;8.644;2023-08-30T07:09:25;98598.41;;;19.75;61.32
40574;BME280;26283;49.020;8.644;2023-08-30T07:11:58;98593.75;;;19.75;61.18
40574;BME280;26283;49.020;8.644;2023-08-30T07:14:23;98594.34;;;19.72;61.03
40574;BME280;26283;49.020;8.644;2023-08-30T07:16:48;98589.16;;;19.71;60.91
40574;BME280;26283;49.020;8.644;2023-08-30T07:19:15;98586.44;;;19.71;60.86
40574;BME280;26283;49.020;8.644;2023-08-30T07:21:41;98582.09;;;19.70;60.82
40574;BME280;26283;49.020;8.644;2023-08-30T07:24:10;98576.94;;;19.68;60.82
40574;BME280;26283;49.020;8.644;2023-08-30T07:26:35;98584.84;;;19.70;60.78
40574;BME280;26283;49.020;8.644;2023-08-30T07:29:01;98580.16;;;19.70;60.73
40574;BME280;26283;49.020;8.644;2023-08-30T07:31:27;98578.56;;;19.69;60.61
40574;BME280;26283;49.020;8.644;2023-08-30T07:33:52;98579.66;;;19.68;60.57
40574;BME280;26283;49.020;8.644;2023-08-30T07:36:17;98580.78;;;19.67;60.56
40574;BME280;26283;49.020;8.644;2023-08-30T07:38:43;98569.56;;;19.69;60.58
40574;BME280;26283;49.020;8.644;2023-08-30T07:41:09;98569.84;;;19.67;60.59
40574;BME280;26283;49.020;8.644;2023-08-30T07:43:35;98566.00;;;19.68;60.61
40574;BME280;26283;49.020;8.644;2023-08-30T07:46:00;98573.91;;;19.70;60.65
40574;BME280;26283;49.020;8.644;2023-08-30T07:48:26;98573.91;;;19.70;60.67
40574;BME280;26283;49.020;8.644;2023-08-30T07:50:51;98573.09;;;19.69;60.70
40574;BME280;26283;49.020;8.644;2023-08-30T07:53:16;98573.59;;;19.71;60.72
40574;BME280;26283;49.020;8.644;2023-08-30T07:55:42;98571.97;;;19.70;60.73
40574;BME280;26283;49.020;8.644;2023-08-30T07:58:07;98575.50;;;19.71;60.75
40574;BME280;26283;49.020;8.644;2023-08-30T08:00:35;98570.84;;;19.71;60.77
40574;BME280;26283;49.020;8.644;2023-08-30T08:03:00;98575.22;;;19.72;60.80
40574;BME280;26283;49.020;8.644;2023-08-30T08:05:26;98582.31;;;19.73;60.81
40574;BME280;26283;49.020;8.644;2023-08-30T08:07:52;98576.84;;;19.73;60.82
40574;BME280;26283;49.020;8.644;2023-08-30T08:10:18;98579.56;;;19.73;60.84
40574;BME280;26283;49.020;8.644;2023-08-30T08:12:44;98574.91;;;19.74;60.86
40574;BME280;26283;49.020;8.644;2023-08-30T08:15:10;98586.66;;;19.74;60.85
40574;BME280;26283;49.020;8.644;2023-08-30T08:17:35;98580.38;;;19.74;60.82
40574;BME280;26283;49.020;8.644;2023-08-30T08:20:01;98583.94;;;19.74;60.82
40574;BME280;26283;49.020;8.644;2023-08-30T08:22:26;98586.66;;;19.74;60.86
40574;BME280;26283;49.020;8.644;2023-08-30T08:24:51;98586.38;;;19.76;60.89
40574;BME280;26283;49.020;8.644;2023-08-30T08:27:18;98581.19;;;19.74;60.91
40574;BME280;26283;49.020;8.644;2023-08-30T08:29:44;98584.47;;;19.76;60.91
40574;BME280;26283;49.020;8.644;2023-08-30T08:32:12;98588.00;;;19.77;60.91
40574;BME280;26283;49.020;8.644;2023-08-30T08:34:37;98574.03;;;19.78;60.92
40574;BME280;26283;49.020;8.644;2023-08-30T08:37:02;98584.69;;;19.80;61.05
40574;BME280;26283;49.020;8.644;2023-08-30T08:39:30;98575.37;;;19.81;61.15
40574;BME280;26283;49.020;8.644;2023-08-30T08:41:55;98575.09;;;19.82;61.14
40574;BME280;26283;49.020;8.644;2023-08-30T08:44:22;98583.00;;;19.84;61.03
40574;BME280;26283;49.020;8.644;2023-08-30T08:46:52;98592.00;;;19.84;61.04
40574;BME280;26283;49.020;8.644;2023-08-30T08:49:18;98592.00;;;19.84;61.06
40574;BME280;26283;49.020;8.644;2023-08-30T08:51:44;98592.00;;;19.84;61.08
40574;BME280;26283;49.020;8.644;2023-08-30T08:54:11;98592.81;;;19.85;61.08
40574;BME280;26283;49.020;8.644;2023-08-30T08:56:37;98592.53;;;19.87;61.09
40574;BME280;26283;49.020;8.644;2023-08-30T08:59:04;98591.72;;;19.86;61.08
40574;BME280;26283;49.020;8.644;2023-08-30T09:01:34;98588.69;;;19.88;61.07
40574;BME280;26283;49.020;8.644;2023-08-30T09:04:06;98598.53;;;19.89;61.08
40574;BME280;26283;49.020;8.644;2023-08-30T09:06:33;98599.34;;;19.89;61.08
40574;BME280;26283;49.020;8.644;2023-08-30T09:09:00;98602.88;;;19.90;61.06
40574;BME280;26283;49.020;8.644;2023-08-30T09:11:25;98594.38;;;19.91;61.05
40574;BME280;26283;49.020;8.644;2023-08-30T09:13:51;98602.25;;;19.93;61.02
40574;BME280;26283;49.020;8.644;2023-08-30T09:16:16;98610.47;;;19.93;61.01
40574;BME280;26283;49.020;8.644;2023-08-30T09:18:42;98614.53;;;19.95;60.99
40574;BME280;26283;49.020;8.644;2023-08-30T09:21:11;98610.16;;;19.94;60.96
40574;BME280;26283;49.020;8.644;2023-08-30T09:23:37;98611.50;;;19.97;60.96
40574;BME280;26283;49.020;8.644;2023-08-30T09:26:04;98603.31;;;19.97;60.93
40574;BME280;26283;49.020;8.644;2023-08-30T09:28:29;98602.19;;;19.98;60.92
40574;BME280;26283;49.020;8.644;2023-08-30T09:30:57;98603.00;;;19.98;60.90
40574;BME280;26283;49.020;8.644;2023-08-30T09:33:31;98599.97;;;20.00;60.88
40574;BME280;26283;49.020;8.644;2023-08-30T09:36:00;98602.41;;;20.01;60.87
40574;BME280;26283;49.020;8.644;2023-08-30T09:38:26;98598.56;;;20.02;60.83
40574;BME280;26283;49.020;8.644;2023-08-30T09:40:52;98602.12;;;20.03;60.82
40574;BME280;26283;49.020;8.644;2023-08-30T09:43:19;98601.84;;;20.04;60.79
40574;BME280;26283;49.020;8.644;2023-08-30T09:45:47;98596.06;;;20.06;60.74
40574;BME280;26283;49.020;8.644;2023-08-30T09:48:12;98602.88;;;20.08;60.73
40574;BME280;26283;49.020;8.644;2023-08-30T09:50:39;98589.19;;;20.08;60.69
40574;BME280;26283;49.020;8.644;2023-08-30T09:53:08;98588.91;;;20.10;60.67
40574;BME280;26283;49.020;8.644;2023-08-30T09:55:35;98586.69;;;20.12;60.64
40574;BME280;26283;49.020;8.644;2023-08-30T09:58:04;98586.69;;;20.12;60.61
40574;BME280;26283;49.020;8.644;2023-08-30T10:00:30;98581.69;;;20.14;60.60
40574;BME280;26283;49.020;8.644;2023-08-30T10:02:58;98582.50;;;20.14;60.56
40574;BME280;26283;49.020;8.644;2023-08-30T10:05:25;98584.97;;;20.16;60.53
40574;BME280;26283;49.020;8.644;2023-08-30T10:07:52;98583.84;;;20.17;60.49
40574;BME280;26283;49.020;8.644;2023-08-30T10:10:19;98581.63;;;20.19;60.46
40574;BME280;26283;49.020;8.644;2023-08-30T10:12:51;98576.97;;;20.19;60.41
40574;BME280;26283;49.020;8.644;2023-08-30T10:15:20;98578.59;;;20.20;60.38
40574;BME280;26283;49.020;8.644;2023-08-30T10:17:52;98575.56;;;20.22;60.36
40574;BME280;26283;49.020;8.644;2023-08-30T10:20:19;98571.72;;;20.23;60.34
40574;BME280;26283;49.020;8.644;2023-08-30T10:22:55;98565.94;;;20.25;60.32
40574;BME280;26283;49.020;8.644;2023-08-30T10:25:26;98564.84;;;20.26;60.25
40574;BME280;26283;49.020;8.644;2023-08-30T10:27:53;98564.53;;;20.27;60.22
40574;BME280;26283;49.020;8.644;2023-08-30T10:30:21;98561.50;;;20.29;60.19
40574;BME280;26283;49.020;8.644;2023-08-30T10:32:46;98558.78;;;20.29;60.17
40574;BME280;26283;49.020;8.644;2023-08-30T10:35:14;98560.91;;;20.32;60.13
40574;BME280;26283;49.020;8.644;2023-08-30T10:37:40;98555.44;;;20.32;60.10
40574;BME280;26283;49.020;8.644;2023-08-30T10:40:06;98545.03;;;20.34;60.05
40574;BME280;26283;49.020;8.644;2023-08-30T10:42:32;98543.59;;;20.36;60.01
40574;BME280;26283;49.020;8.644;2023-08-30T10:47:33;98544.13;;;20.38;59.95
40574;BME280;26283;49.020;8.644;2023-08-30T10:50:10;98547.69;;;20.39;59.89
40574;BME280;26283;49.020;8.644;2023-08-30T10:52:36;98540.78;;;20.41;59.83
40574;BME280;26283;49.020;8.644;2023-08-30T10:57:32;98536.66;;;20.44;59.79
40574;BME280;26283;49.020;8.644;2023-08-30T11:00:18;98528.13;;;20.45;59.74
40574;BME280;26283;49.020;8.644;2023-08-30T11:02:45;98530.28;;;20.48;59.70
40574;BME280;26283;49.020;8.644;2023-08-30T11:05:11;98527.84;;;20.47;59.65
40574;BME280;26283;49.020;8.644;2023-08-30T11:07:37;98527.25;;;20.50;59.64
40574;BME280;26283;49.020;8.644;2023-08-30T11:10:05;98527.25;;;20.50;59.58
40574;BME280;26283;49.020;8.644;2023-08-30T11:12:31;98524.72;;;20.53;59.57
40574;BME280;26283;49.020;8.644;2023-08-30T11:14:57;98528.28;;;20.54;59.58
40574;BME280;26283;49.020;8.644;2023-08-30T11:17:22;98516.50;;;20.53;59.54
40574;BME280;26283;49.020;8.644;2023-08-30T11:19:57;98524.91;;;20.57;59.49
40574;BME280;26283;49.020;8.644;2023-08-30T11:22:24;98523.50;;;20.60;59.52
40574;BME280;26283;49.020;8.644;2023-08-30T11:24:49;98522.37;;;20.61;59.53
40574;BME280;26283;49.020;8.644;2023-08-30T11:27:18;98518.53;;;20.62;59.59
40574;BME280;26283;49.020;8.644;2023-08-30T11:29:43;98507.87;;;20.60;59.56
40574;BME280;26283;49.020;8.644;2023-08-30T11:32:09;98508.09;;;20.64;59.60
40574;BME280;26283;49.020;8.644;2023-08-30T11:34:34;98503.12;;;20.66;59.56
40574;BME280;26283;49.020;8.644;2023-08-30T11:37:00;98496.03;;;20.65;59.53
40574;BME280;26283;49.020;8.644;2023-08-30T11:39:28;98497.34;;;20.67;59.55
40574;BME280;26283;49.020;8.644;2023-08-30T11:41:53;98506.06;;;20.69;59.53
40574;BME280;26283;49.020;8.644;2023-08-30T11:44:19;98496.75;;;20.70;59.48
40574;BME280;26283;49.020;8.644;2023-08-30T11:46:44;98483.87;;;20.71;59.49
40574;BME280;26283;49.020;8.644;2023-08-30T11:49:10;98495.03;;;20.74;59.48
40574;BME280;26283;49.020;8.644;2023-08-30T11:51:36;98492.28;;;20.74;59.45
40574;BME280;26283;49.020;8.644;2023-08-30T11:54:02;98492.00;;;20.76;59.39
40574;BME280;26283;49.020;8.644;2023-08-30T11:56:29;98490.88;;;20.77;59.37
40574;BME280;26283;49.020;8.644;2023-08-30T11:58:54;98490.56;;;20.78;59.32
40574;BME280;26283;49.020;8.644;2023-08-30T12:01:20;98486.69;;;20.79;59.27
40574;BME280;26283;49.020;8.644;2023-08-30T12:03:45;98487.50;;;20.80;59.21
40574;BME280;26283;49.020;8.644;2023-08-30T12:06:16;98496.22;;;20.82;59.22
40574;BME280;26283;49.020;8.644;2023-08-30T12:08:42;98495.12;;;20.83;59.17
40574;BME280;26283;49.020;8.644;2023-08-30T12:11:18;98490.47;;;20.83;59.13
40574;BME280;26283;49.020;8.644;2023-08-30T12:13:44;98492.06;;;20.84;59.11
40574;BME280;26283;49.020;8.644;2023-08-30T12:16:15;98492.91;;;20.85;59.08
40574;BME280;26283;49.020;8.644;2023-08-30T12:18:45;98485.50;;;20.85;59.05
40574;BME280;26283;49.020;8.644;2023-08-30T12:21:13;98478.09;;;20.86;59.06
40574;BME280;26283;49.020;8.644;2023-08-30T12:23:38;98473.94;;;20.88;59.02
40574;BME280;26283;49.020;8.644;2023-08-30T12:26:08;98474.75;;;20.89;58.94
40574;BME280;26283;49.020;8.644;2023-08-30T12:28:36;98487.81;;;20.92;58.92
40574;BME280;26283;49.020;8.644;2023-08-30T12:31:03;98477.69;;;20.93;58.91
40574;BME280;26283;49.020;8.644;2023-08-30T12:33:35;98473.84;;;20.94;58.85
40574;BME280;26283;49.020;8.644;2023-08-30T12:36:01;98474.34;;;20.96;58.77
40574;BME280;26283;49.020;8.644;2023-08-30T12:38:27;98476.78;;;20.97;58.77
40574;BME280;26283;49.020;8.644;2023-08-30T12:40:53;98473.72;;;20.99;58.74
40574;BME280;26283;49.020;8.644;2023-08-30T12:43:20;98472.28;;;21.01;58.71
40574;BME280;26283;49.020;8.644;2023-08-30T12:45:46;98468.72;;;21.01;58.65
40574;BME280;26283;49.020;8.644;2023-08-30T12:48:13;98470.06;;;21.03;58.63
40574;BME280;26283;49.020;8.644;2023-08-30T12:50:44;98478.78;;;21.05;58.55
40574;BME280;26283;49.020;8.644;2023-08-30T12:53:09;98471.38;;;21.06;58.52
40574;BME280;26283;49.020;8.644;2023-08-30T12:55:35;98478.16;;;21.08;58.47
40574;BME280;26283;49.020;8.644;2023-08-30T12:58:01;98471.56;;;21.09;58.43
40574;BME280;26283;49.020;8.644;2023-08-30T13:00:28;98471.56;;;21.09;58.41
40574;BME280;26283;49.020;8.644;2023-08-30T13:02:53;98472.09;;;21.11;58.39
40574;BME280;26283;49.020;8.644;2023-08-30T13:05:19;98470.97;;;21.12;58.36
40574;BME280;26283;49.020;8.644;2023-08-30T13:07:44;98472.59;;;21.13;58.31
40574;BME280;26283;49.020;8.644;2023-08-30T13:10:10;98474.22;;;21.14;58.31
40574;BME280;26283;49.020;8.644;2023-08-30T13:12:36;98470.06;;;21.17;58.26
40574;BME280;26283;49.020;8.644;2023-08-30T13:15:03;98459.91;;;21.17;58.23
40574;BME280;26283;49.020;8.644;2023-08-30T13:17:29;98464.28;;;21.18;58.18